Time;durP1;ratioP1;P1;durP2;ratioP2;P2;SDS_P1;SDS_P2;PMS_P1;PMS_P2;Temp;Humidity;BMP_temperature;BMP_pressure;BME280_temperature;BME280_humidity;BME280_pressure;Samples;Min_cycle;Max_cycle;Signal;HPM_P1;HPM_P2
2022/12/26 00:00:07;;;;;;;2.90;1.00;;;9.80;99.90;;;;;;5056707;28;20159;-82
2022/12/26 00:02:34;;;;;;;2.97;1.00;;;9.70;99.90;;;;;;5051430;28;20044;-79
2022/12/26 00:05:01;;;;;;;3.50;1.20;;;9.80;99.90;;;;;;5054309;28;20450;-78
2022/12/26 00:07:27;;;;;;;2.03;0.80;;;9.80;99.90;;;;;;5035594;28;20053;-79
2022/12/26 00:09:54;;;;;;;1.95;0.93;;;9.80;99.90;;;;;;5053093;28;20048;-79
2022/12/26 00:12:21;;;;;;;1.30;0.63;;;9.70;99.90;;;;;;5055130;28;20053;-79
2022/12/26 00:14:48;;;;;;;3.55;1.00;;;9.70;99.90;;;;;;5042240;28;20048;-80
2022/12/26 00:17:15;;;;;;;3.60;1.30;;;9.80;99.90;;;;;;5037595;28;20064;-80
2022/12/26 00:19:42;;;;;;;2.28;0.80;;;9.80;99.90;;;;;;5056047;28;20052;-81
2022/12/26 00:22:08;;;;;;;2.40;0.68;;;9.80;99.90;;;;;;5057161;28;20040;-79
2022/12/26 00:24:35;;;;;;;1.83;0.70;;;9.70;99.90;;;;;;5054510;28;20048;-79
2022/12/26 00:27:02;;;;;;;4.20;1.00;;;9.70;99.90;;;;;;5058960;28;20116;-79
2022/12/26 00:29:29;;;;;;;2.30;0.90;;;9.70;99.90;;;;;;5038311;28;20045;-80
2022/12/26 00:31:56;;;;;;;1.92;0.82;;;9.80;99.90;;;;;;5023191;28;20231;-79
2022/12/26 00:34:23;;;;;;;4.40;0.95;;;9.70;99.90;;;;;;5057474;28;20139;-80
2022/12/26 00:36:50;;;;;;;2.80;1.05;;;9.80;99.90;;;;;;5054854;28;20090;-80
2022/12/26 00:39:17;;;;;;;1.98;0.98;;;9.80;99.90;;;;;;5057560;28;20144;-79
2022/12/26 00:41:44;;;;;;;4.25;1.15;;;9.80;99.90;;;;;;5039593;28;20088;-79
2022/12/26 00:44:11;;;;;;;3.20;1.02;;;9.80;99.90;;;;;;5040229;28;20486;-81
2022/12/26 00:46:38;;;;;;;2.47;0.73;;;9.80;99.90;;;;;;5039894;28;20045;-80
2022/12/26 00:49:05;;;;;;;1.48;0.90;;;9.80;99.90;;;;;;5039402;28;20052;-80
2022/12/26 00:51:31;;;;;;;4.97;1.33;;;9.80;99.90;;;;;;5020360;28;20057;-78
2022/12/26 00:53:58;;;;;;;2.20;0.85;;;9.90;99.90;;;;;;5037953;28;20061;-78
2022/12/26 00:56:25;;;;;;;4.15;1.42;;;9.90;99.90;;;;;;5037987;28;20127;-77
2022/12/26 00:58:52;;;;;;;5.50;1.20;;;10.00;99.90;;;;;;5036628;28;20117;-76
2022/12/26 01:01:20;;;;;;;3.03;1.10;;;10.00;99.90;;;;;;5033301;28;20059;-77
2022/12/26 01:03:48;;;;;;;7.25;1.48;;;10.10;99.90;;;;;;5065396;28;20055;-77
2022/12/26 01:06:16;;;;;;;3.40;1.15;;;10.10;99.90;;;;;;5057300;28;20060;-77
2022/12/26 01:08:43;;;;;;;4.93;1.10;;;10.10;99.90;;;;;;5038498;28;20134;-76
2022/12/26 01:11:13;;;;;;;3.05;1.13;;;10.10;99.90;;;;;;5034708;28;20049;-76
2022/12/26 01:13:41;;;;;;;2.85;1.10;;;10.10;99.90;;;;;;5058988;28;20063;-76
2022/12/26 01:16:08;;;;;;;5.90;1.38;;;10.10;99.90;;;;;;5024339;28;20853;-76
2022/12/26 01:18:35;;;;;;;3.88;1.33;;;10.10;99.90;;;;;;5056186;28;20045;-76
2022/12/26 01:21:07;;;;;;;3.13;1.55;;;10.10;99.90;;;;;;5040143;28;20045;-76
2022/12/26 01:23:35;;;;;;;4.85;1.20;;;10.10;99.90;;;;;;5053945;28;20052;-76
2022/12/26 01:26:04;;;;;;;2.83;1.00;;;10.20;99.90;;;;;;5018017;28;20049;-76
2022/12/26 01:28:47;;;;;;;2.97;0.90;;;10.10;99.90;;;;;;5049445;28;20045;-76
2022/12/26 01:31:14;;;;;;;2.95;0.80;;;10.10;99.90;;;;;;5056276;28;20156;-77
2022/12/26 01:33:41;;;;;;;1.80;0.85;;;10.10;99.90;;;;;;5027839;28;20533;-76
2022/12/26 01:36:07;;;;;;;3.78;1.25;;;10.10;99.90;;;;;;5062483;28;20045;-76
2022/12/26 01:38:35;;;;;;;4.53;1.10;;;10.10;99.90;;;;;;5054417;28;20137;-76
2022/12/26 01:41:18;;;;;;;4.93;0.90;;;10.20;99.90;;;;;;5064822;28;20105;-76
2022/12/26 01:44:00;;;;;;;3.78;1.00;;;10.20;99.90;;;;;;5058550;28;20673;-77
2022/12/26 01:46:34;;;;;;;4.93;1.25;;;10.20;99.90;;;;;;5040577;28;20048;-76
2022/12/26 01:49:07;;;;;;;3.35;0.80;;;10.30;99.90;;;;;;5061305;28;20502;-77
2022/12/26 01:51:36;;;;;;;3.03;0.90;;;10.30;99.90;;;;;;5039355;28;20063;-76
2022/12/26 01:54:03;;;;;;;4.70;0.80;;;10.30;99.90;;;;;;5038707;28;20056;-75
2022/12/26 01:56:50;;;;;;;4.00;1.20;;;10.30;99.90;;;;;;5057362;28;20059;-76
2022/12/26 01:59:20;;;;;;;2.53;0.88;;;10.30;99.90;;;;;;5062461;28;20052;-76
2022/12/26 02:01:46;;;;;;;3.17;1.20;;;10.30;99.90;;;;;;5029663;28;20155;-77
2022/12/26 02:07:01;;;;;;;5.45;1.20;;;10.40;99.90;;;;;;5063728;28;20106;-76
2022/12/26 02:09:28;;;;;;;1.98;1.00;;;10.40;99.90;;;;;;5060658;28;20053;-76
2022/12/26 02:11:58;;;;;;;4.00;1.13;;;10.40;99.90;;;;;;5045923;28;20109;-76
2022/12/26 02:14:46;;;;;;;4.25;1.08;;;10.40;99.90;;;;;;5054452;28;20049;-77
2022/12/26 02:17:13;;;;;;;4.85;1.00;;;10.30;99.90;;;;;;5061359;28;20361;-77
2022/12/26 02:20:09;;;;;;;3.15;0.75;;;10.30;99.90;;;;;;5061582;28;20044;-77
2022/12/26 02:23:03;;;;;;;4.30;1.30;;;10.20;99.90;;;;;;5072679;28;20147;-77
2022/12/26 02:25:51;;;;;;;5.13;1.52;;;10.20;99.90;;;;;;5051949;28;20055;-76
2022/12/26 02:28:29;;;;;;;5.60;1.10;;;10.20;99.90;;;;;;5060121;28;20471;-77
2022/12/26 02:31:02;;;;;;;6.35;1.20;;;10.20;99.90;;;;;;5038882;28;20138;-78
2022/12/26 02:33:36;;;;;;;;;;;10.30;99.90;;;;;;5054468;28;20045;-76
2022/12/26 02:36:27;;;;;;;4.35;1.08;;;10.20;99.90;;;;;;5062593;28;19920;-77
2022/12/26 02:39:32;;;;;;;5.70;1.75;;;10.20;99.90;;;;;;5057172;28;20048;-77
2022/12/26 02:42:44;;;;;;;3.60;1.10;;;10.30;99.90;;;;;;5055661;28;20056;-77
2022/12/26 02:48:29;;;;;;;3.53;1.02;;;10.40;99.90;;;;;;5057861;28;20455;-77
2022/12/26 03:14:49;;;;;;;5.28;1.60;;;10.70;99.90;;;;;;5061877;28;20596;-77
2022/12/26 03:17:30;;;;;;;6.28;1.63;;;10.70;99.90;;;;;;5061934;28;20135;-77
2022/12/26 03:20:05;;;;;;;5.63;1.48;;;10.80;99.90;;;;;;5057420;28;20045;-76
2022/12/26 03:22:41;;;;;;;5.38;1.45;;;10.80;99.90;;;;;;5043350;28;20041;-76
2022/12/26 03:27:55;;;;;;;4.53;1.33;;;10.70;99.90;;;;;;5055318;28;20090;-76
2022/12/26 03:34:15;;;;;;;5.38;1.42;;;10.80;99.90;;;;;;5041385;28;20041;-76
2022/12/26 03:35:54;;;;;;;4.15;1.40;;;10.80;99.90;;;;;;5058986;28;20496;-76
2022/12/26 03:38:24;;;;;;;5.15;1.25;;;10.80;99.90;;;;;;5062191;28;20050;-75
2022/12/26 04:19:49;;;;;;;2.22;0.90;;;10.20;99.90;;;;;;5050363;28;20063;-77
2022/12/26 04:46:14;;;;;;;0.82;0.50;;;9.00;99.90;;;;;;5037101;28;20707;-77
2022/12/26 04:51:30;;;;;;;1.25;0.60;;;8.90;99.90;;;;;;5044683;28;20575;-76
2022/12/26 04:53:57;;;;;;;0.80;0.55;;;8.90;99.90;;;;;;5043948;28;20127;-76
2022/12/26 04:56:24;;;;;;;0.68;0.40;;;8.90;99.90;;;;;;5062113;28;20045;-78
2022/12/26 04:58:50;;;;;;;2.45;0.70;;;8.90;99.90;;;;;;5046182;28;20063;-77
2022/12/26 05:09:38;;;;;;;0.63;0.40;;;9.00;99.90;;;;;;5060726;28;20124;-78
2022/12/26 05:12:07;;;;;;;0.98;0.60;;;9.00;99.90;;;;;;5064233;28;20048;-78
2022/12/26 05:14:35;;;;;;;1.50;0.60;;;9.00;99.90;;;;;;5048226;28;20171;-77
2022/12/26 05:30:57;;;;;;;2.50;0.90;;;9.00;99.90;;;;;;5047739;28;20555;-77
2022/12/26 05:36:10;;;;;;;1.70;0.90;;;9.00;99.90;;;;;;5064060;28;20607;-77
2022/12/26 05:38:36;;;;;;;2.13;0.60;;;9.00;99.90;;;;;;5026994;28;20048;-78
2022/12/26 05:41:03;;;;;;;2.15;0.50;;;9.00;99.90;;;;;;5032235;28;20045;-77
2022/12/26 05:43:30;;;;;;;2.03;0.90;;;9.00;99.90;;;;;;5029613;28;20051;-77
2022/12/26 05:45:57;;;;;;;1.30;0.43;;;9.00;99.90;;;;;;5067370;28;20048;-77
2022/12/26 05:48:24;;;;;;;0.93;0.50;;;8.70;99.90;;;;;;5059825;28;20055;-77
2022/12/26 05:50:52;;;;;;;1.40;0.40;;;8.30;99.90;;;;;;5036459;28;20053;-78
2022/12/26 05:53:19;;;;;;;0.43;0.30;;;7.90;99.90;;;;;;5040976;28;20049;-77
2022/12/26 05:55:45;;;;;;;0.40;0.22;;;7.60;99.90;;;;;;5028807;28;20052;-77
2022/12/26 05:58:15;;;;;;;0.30;0.17;;;7.50;99.90;;;;;;5046073;28;20048;-77
2022/12/26 06:00:42;;;;;;;0.35;0.22;;;7.30;99.90;;;;;;5039456;28;20111;-79
2022/12/26 06:03:09;;;;;;;0.65;0.30;;;7.30;99.90;;;;;;5043072;28;20305;-78
2022/12/26 06:05:36;;;;;;;0.30;0.20;;;7.20;99.90;;;;;;5038396;28;20049;-77
2022/12/26 06:08:03;;;;;;;0.60;0.40;;;7.20;99.90;;;;;;5041974;28;20049;-76
2022/12/26 06:10:30;;;;;;;1.50;0.52;;;7.20;99.90;;;;;;5041953;28;20548;-78
2022/12/26 06:12:58;;;;;;;1.75;0.40;;;7.30;99.90;;;;;;5051840;28;20655;-77
2022/12/26 06:15:25;;;;;;;1.20;0.68;;;7.30;99.90;;;;;;5047941;28;20084;-77
2022/12/26 06:17:53;;;;;;;0.73;0.30;;;7.30;99.90;;;;;;5047271;28;20079;-77
2022/12/26 06:20:20;;;;;;;0.77;0.28;;;7.30;99.90;;;;;;5047338;28;20052;-77
2022/12/26 06:22:47;;;;;;;0.82;0.22;;;7.30;99.90;;;;;;5031179;28;20738;-77
2022/12/26 06:25:14;;;;;;;0.28;0.28;;;7.30;99.90;;;;;;5043298;28;20118;-77
2022/12/26 06:27:42;;;;;;;2.42;0.50;;;7.30;99.90;;;;;;5042803;28;20044;-77
2022/12/26 06:30:09;;;;;;;1.02;0.40;;;7.30;99.90;;;;;;5045823;28;20040;-78
2022/12/26 06:32:37;;;;;;;1.90;0.50;;;7.30;99.90;;;;;;5044881;28;20055;-77
2022/12/26 06:35:05;;;;;;;1.35;0.45;;;7.30;99.90;;;;;;5063166;28;21874;-77
2022/12/26 06:37:32;;;;;;;2.28;0.63;;;7.30;99.90;;;;;;5045490;28;20087;-77
2022/12/26 06:39:59;;;;;;;1.05;0.52;;;7.30;99.90;;;;;;5046015;28;20064;-78
2022/12/26 06:42:27;;;;;;;1.92;0.45;;;7.30;99.90;;;;;;5037973;28;20075;-77
2022/12/26 06:44:53;;;;;;;1.65;0.70;;;7.20;99.90;;;;;;5045104;28;20484;-77
2022/12/26 06:47:20;;;;;;;2.05;0.70;;;7.20;99.90;;;;;;5045663;28;20052;-77
2022/12/26 06:49:47;;;;;;;0.75;0.50;;;7.10;99.90;;;;;;5045965;28;20052;-77
2022/12/26 06:52:14;;;;;;;1.13;0.50;;;7.10;99.90;;;;;;5043879;28;20087;-77
2022/12/26 06:54:41;;;;;;;0.20;0.20;;;7.00;99.90;;;;;;5028858;28;20135;-77
2022/12/26 06:57:08;;;;;;;1.52;0.40;;;6.90;99.90;;;;;;5038863;28;20126;-77
2022/12/26 06:59:35;;;;;;;1.27;0.32;;;6.90;99.90;;;;;;5069073;28;20079;-78
2022/12/26 07:02:02;;;;;;;1.35;0.43;;;6.80;99.90;;;;;;5040134;28;20052;-77
2022/12/26 07:04:29;;;;;;;3.22;0.65;;;6.80;99.90;;;;;;5045393;28;20101;-78
2022/12/26 07:06:56;;;;;;;1.23;0.50;;;6.70;99.90;;;;;;5043119;28;20059;-78
2022/12/26 07:09:23;;;;;;;0.88;0.30;;;6.60;99.90;;;;;;5039106;28;20045;-77
2022/12/26 07:11:59;;;;;;;0.25;0.25;;;6.60;99.90;;;;;;5057230;28;20066;-77
2022/12/26 07:14:26;;;;;;;0.40;0.30;;;6.50;99.90;;;;;;5028571;28;20571;-78
2022/12/26 07:16:53;;;;;;;1.63;0.60;;;6.50;99.90;;;;;;5040285;28;20369;-78
2022/12/26 07:19:20;;;;;;;0.93;0.40;;;6.40;99.90;;;;;;5042166;28;20041;-77
2022/12/26 07:21:47;;;;;;;0.57;0.20;;;6.40;99.90;;;;;;5043889;28;20056;-77
2022/12/26 07:24:16;;;;;;;1.70;0.75;;;6.30;99.90;;;;;;5060351;28;20048;-77
2022/12/26 07:26:43;;;;;;;0.28;0.20;;;6.20;99.90;;;;;;5058180;28;20131;-77
2022/12/26 07:29:11;;;;;;;0.30;0.20;;;6.20;99.90;;;;;;5044868;28;20121;-76
2022/12/26 07:31:38;;;;;;;0.20;0.20;;;6.20;99.90;;;;;;5043285;28;20048;-77
2022/12/26 07:34:05;;;;;;;2.83;0.30;;;6.10;99.90;;;;;;5044362;28;20072;-77
2022/12/26 07:36:32;;;;;;;0.75;0.50;;;6.10;99.90;;;;;;5062388;28;20052;-76
2022/12/26 07:38:59;;;;;;;1.30;0.30;;;6.00;99.90;;;;;;5044043;28;20143;-77
2022/12/26 07:44:12;;;;;;;1.00;0.47;;;6.00;99.90;;;;;;5052937;28;20456;-77
2022/12/26 07:46:39;;;;;;;0.43;0.20;;;5.90;99.90;;;;;;5033257;28;20076;-77
2022/12/26 07:49:08;;;;;;;0.80;0.25;;;5.90;99.90;;;;;;5052568;28;20099;-77
2022/12/26 07:51:34;;;;;;;1.80;0.50;;;5.90;99.90;;;;;;5044457;28;20048;-77
2022/12/26 07:54:01;;;;;;;2.72;0.50;;;5.80;99.90;;;;;;5023328;28;20045;-76
2022/12/26 07:56:36;;;;;;;2.10;0.63;;;5.80;99.90;;;;;;5042518;28;20102;-76
2022/12/26 07:59:03;;;;;;;1.13;0.30;;;5.70;99.90;;;;;;5061436;28;20044;-76
2022/12/26 08:01:30;;;;;;;0.50;0.32;;;5.70;99.90;;;;;;5058251;28;20166;-76
2022/12/26 08:03:57;;;;;;;1.33;0.82;;;5.70;99.90;;;;;;5058321;28;20040;-78
2022/12/26 08:06:24;;;;;;;0.40;0.30;;;5.70;99.90;;;;;;5038403;28;20119;-78
2022/12/26 08:08:51;;;;;;;1.35;0.40;;;5.60;99.90;;;;;;5054399;28;20117;-78
2022/12/26 08:11:19;;;;;;;1.45;0.50;;;5.60;99.90;;;;;;5052579;28;20539;-78
2022/12/26 08:13:46;;;;;;;1.05;0.70;;;5.60;99.90;;;;;;5039800;28;20732;-78
2022/12/26 08:16:13;;;;;;;0.90;0.40;;;5.60;99.90;;;;;;5040211;28;20125;-77
2022/12/26 08:18:41;;;;;;;1.15;0.50;;;5.60;99.90;;;;;;5056929;28;20127;-78
2022/12/26 08:21:08;;;;;;;1.65;0.63;;;5.60;99.90;;;;;;5023666;28;20048;-78
2022/12/26 08:23:35;;;;;;;0.80;0.30;;;5.60;99.90;;;;;;5038074;28;20163;-76
2022/12/26 08:26:07;;;;;;;1.60;0.55;;;5.60;99.90;;;;;;5029913;28;20050;-78
2022/12/26 08:28:34;;;;;;;1.00;0.50;;;5.60;99.90;;;;;;5053349;28;20045;-78
2022/12/26 08:31:08;;;;;;;2.60;0.60;;;5.50;99.90;;;;;;5039373;28;20098;-78
2022/12/26 08:33:35;;;;;;;2.33;0.70;;;5.50;99.90;;;;;;5040611;28;20143;-81
2022/12/26 08:36:03;;;;;;;0.60;0.40;;;5.50;99.90;;;;;;5039867;28;20672;-84
2022/12/26 08:38:29;;;;;;;2.40;0.57;;;5.50;99.90;;;;;;5020431;28;20062;-83
2022/12/26 08:40:59;;;;;;;1.45;0.63;;;5.50;99.90;;;;;;5039083;28;20128;-82
2022/12/26 08:43:27;;;;;;;1.35;0.45;;;5.50;99.90;;;;;;5028239;28;20741;-82
2022/12/26 08:46:14;;;;;;;0.70;0.40;;;5.50;99.90;;;;;;5049050;28;20151;-82
2022/12/26 08:48:40;;;;;;;1.10;0.30;;;5.40;99.90;;;;;;5027561;28;20152;-82
2022/12/26 08:51:10;;;;;;;1.15;0.30;;;5.50;99.90;;;;;;5059284;28;20916;-83
2022/12/26 08:53:37;;;;;;;1.40;0.50;;;5.50;99.90;;;;;;5042354;28;20052;-84
2022/12/26 08:56:05;;;;;;;0.43;0.30;;;5.50;99.90;;;;;;5059871;28;20280;-85
2022/12/26 08:58:32;;;;;;;0.63;0.40;;;5.50;99.90;;;;;;5036943;28;20045;-82
2022/12/26 09:01:14;;;;;;;2.00;0.40;;;5.50;99.90;;;;;;5018712;28;20062;-83
2022/12/26 09:03:41;;;;;;;0.38;0.25;;;5.50;99.90;;;;;;5039809;28;20048;-82
2022/12/26 09:06:08;;;;;;;0.52;0.40;;;5.50;99.90;;;;;;5035346;28;20528;-81
2022/12/26 09:08:35;;;;;;;0.65;0.25;;;5.50;99.90;;;;;;5041090;28;20059;-81
2022/12/26 09:11:10;;;;;;;2.22;0.43;;;5.50;99.90;;;;;;5049658;28;20077;-82
2022/12/26 09:13:38;;;;;;;0.38;0.30;;;5.50;99.90;;;;;;5037976;28;20076;-82
2022/12/26 09:16:10;;;;;;;0.57;0.43;;;5.50;99.90;;;;;;5052535;28;20052;-82
2022/12/26 09:18:36;;;;;;;1.17;0.40;;;5.50;99.90;;;;;;5050173;28;20487;-82
2022/12/26 09:21:04;;;;;;;0.75;0.30;;;5.50;99.90;;;;;;5037064;28;20230;-84
2022/12/26 09:23:31;;;;;;;0.30;0.30;;;5.50;99.90;;;;;;5020372;28;20457;-82
2022/12/26 09:26:06;;;;;;;0.38;0.30;;;5.50;99.90;;;;;;5051094;28;20060;-82
2022/12/26 09:28:35;;;;;;;1.08;0.60;;;5.50;99.90;;;;;;5029871;28;20044;-82
2022/12/26 09:31:04;;;;;;;1.48;0.50;;;5.60;99.90;;;;;;5033998;28;20056;-81
2022/12/26 09:33:32;;;;;;;1.55;0.65;;;5.60;99.90;;;;;;5022409;28;20074;-81
2022/12/26 09:35:59;;;;;;;0.57;0.40;;;5.70;99.90;;;;;;5024156;28;20087;-80
2022/12/26 09:38:32;;;;;;;0.45;0.30;;;5.80;99.90;;;;;;5037346;28;20053;-81
2022/12/26 09:41:05;;;;;;;0.13;0.13;;;5.80;99.90;;;;;;5033202;28;20068;-80
2022/12/26 09:43:55;;;;;;;0.40;0.30;;;5.90;99.90;;;;;;5055314;28;20047;-81
2022/12/26 09:46:30;;;;;;;0.80;0.40;;;5.90;99.90;;;;;;5050368;28;20479;-83
2022/12/26 09:49:05;;;;;;;2.30;0.50;;;6.00;99.90;;;;;;5054768;28;20563;-82
2022/12/26 09:51:32;;;;;;;1.30;0.30;;;6.00;99.90;;;;;;5020786;28;20063;-81
2022/12/26 09:53:59;;;;;;;1.92;0.45;;;6.00;99.90;;;;;;5045509;28;20060;-81
2022/12/26 09:56:26;;;;;;;0.35;0.30;;;6.10;99.90;;;;;;5014563;28;20679;-82
2022/12/26 09:59:16;;;;;;;0.40;0.30;;;6.10;99.90;;;;;;5041032;28;20440;-82
2022/12/26 10:01:43;;;;;;;0.98;0.30;;;6.20;99.90;;;;;;5034944;28;20053;-80
2022/12/26 10:04:22;;;;;;;0.38;0.38;;;6.20;99.90;;;;;;5034545;28;20287;-79
2022/12/26 10:07:08;;;;;;;1.48;0.55;;;6.30;99.90;;;;;;5041180;28;20056;-81
2022/12/26 10:09:47;;;;;;;1.02;0.60;;;6.40;99.90;;;;;;5040125;28;20616;-84
2022/12/26 10:12:20;;;;;;;1.20;0.40;;;6.40;99.90;;;;;;5053930;28;20056;-82
2022/12/26 10:15:09;;;;;;;0.50;0.30;;;6.40;99.90;;;;;;5038750;28;20048;-81
2022/12/26 10:17:51;;;;;;;0.88;0.40;;;6.40;99.90;;;;;;5039392;28;20693;-81
2022/12/26 10:20:51;;;;;;;0.60;0.60;;;6.40;99.90;;;;;;5037879;28;20049;-81
2022/12/26 10:23:24;;;;;;;0.90;0.40;;;6.40;99.90;;;;;;5052881;28;20400;-80
2022/12/26 10:26:10;;;;;;;1.85;0.52;;;6.40;99.90;;;;;;5052523;28;20049;-84
2022/12/26 10:29:03;;;;;;;0.30;0.30;;;6.40;99.90;;;;;;5058793;28;20060;-86
2022/12/26 10:31:36;;;;;;;2.92;0.50;;;6.40;99.90;;;;;;5046982;28;20040;-84
2022/12/26 10:34:33;;;;;;;0.40;0.40;;;6.50;99.90;;;;;;5058737;28;20056;-82
2022/12/26 10:37:12;;;;;;;0.68;0.45;;;6.50;99.90;;;;;;5065786;28;20129;-86
2022/12/26 10:39:53;;;;;;;0.70;0.40;;;6.50;99.90;;;;;;5067961;28;20071;-83
2022/12/26 10:42:37;;;;;;;2.45;0.50;;;6.60;99.90;;;;;;5069764;28;20492;-83
2022/12/26 10:45:27;;;;;;;0.45;0.40;;;6.60;99.90;;;;;;5038464;28;20056;-83
2022/12/26 10:47:54;;;;;;;0.68;0.40;;;6.70;99.90;;;;;;5053716;28;20072;-83
2022/12/26 10:50:26;;;;;;;1.20;0.50;;;6.70;99.90;;;;;;5035693;28;20056;-82
2022/12/26 10:52:53;;;;;;;0.80;0.50;;;6.80;99.90;;;;;;5051648;28;20045;-81
2022/12/26 10:55:27;;;;;;;1.10;0.50;;;6.80;99.90;;;;;;5035773;28;20140;-81
2022/12/26 10:58:30;;;;;;;2.05;0.50;;;6.80;99.90;;;;;;5024725;28;20044;-82
2022/12/26 11:00:59;;;;;;;1.30;0.40;;;6.80;99.90;;;;;;5037361;28;20076;-82
2022/12/26 11:03:26;;;;;;;4.38;0.80;;;6.90;99.90;;;;;;5019737;28;20306;-81
2022/12/26 11:05:54;;;;;;;2.28;0.70;;;6.80;99.90;;;;;;5034085;28;20102;-81
2022/12/26 11:08:38;;;;;;;1.52;0.73;;;6.80;99.90;;;;;;5044939;28;20604;-81
2022/12/26 11:11:22;;;;;;;2.35;0.77;;;6.80;99.90;;;;;;5033639;28;20118;-83
2022/12/26 11:13:56;;;;;;;4.25;1.13;;;6.90;99.90;;;;;;5032104;28;20045;-84
2022/12/26 11:16:36;;;;;;;2.25;0.90;;;6.90;99.90;;;;;;5038158;28;20052;-81
2022/12/26 11:19:03;;;;;;;1.27;0.80;;;6.90;99.90;;;;;;5035558;28;20435;-81
2022/12/26 11:21:31;;;;;;;1.73;0.70;;;6.90;99.90;;;;;;5034129;28;20061;-81
2022/12/26 11:24:07;;;;;;;2.78;0.70;;;7.00;99.90;;;;;;5046110;28;20132;-82
2022/12/26 11:26:34;;;;;;;1.95;0.70;;;7.00;99.90;;;;;;5045189;28;20692;-84
2022/12/26 11:29:28;;;;;;;1.90;0.52;;;7.10;99.90;;;;;;5079496;27;20175;-84
2022/12/26 11:31:58;;;;;;;;;;;7.10;99.90;;;;;;5050001;28;20049;-80
2022/12/26 11:34:38;;;;;;;1.60;0.88;;;7.10;99.90;;;;;;5058596;28;19936;-80
2022/12/26 11:37:05;;;;;;;3.67;0.70;;;7.20;99.90;;;;;;5035697;28;20171;-84
2022/12/26 11:39:38;;;;;;;1.60;0.50;;;7.20;99.90;;;;;;5036934;28;20098;-82
2022/12/26 11:42:11;;;;;;;2.65;0.90;;;7.20;99.90;;;;;;5045751;28;20063;-83
2022/12/26 11:44:40;;;;;;;1.50;0.75;;;7.20;99.90;;;;;;5056881;28;20037;-79
2022/12/26 11:47:15;;;;;;;2.67;1.10;;;7.30;99.90;;;;;;5033690;28;21067;-82
2022/12/26 11:50:00;;;;;;;2.25;0.68;;;7.30;99.90;;;;;;5064695;28;20064;-81
2022/12/26 11:52:46;;;;;;;3.17;0.70;;;7.40;99.90;;;;;;5053965;28;20052;-83
2022/12/26 11:55:36;;;;;;;3.22;1.17;;;7.50;99.90;;;;;;5063026;28;20052;-79
2022/12/26 11:58:08;;;;;;;4.50;0.98;;;7.50;99.90;;;;;;5031140;28;20106;-83
2022/12/26 12:00:49;;;;;;;2.25;0.95;;;7.60;99.90;;;;;;5046772;28;20144;-83
2022/12/26 12:03:20;;;;;;;2.65;0.88;;;7.60;99.90;;;;;;5050117;28;20067;-81
2022/12/26 12:05:59;;;;;;;4.10;1.75;;;7.70;99.90;;;;;;5018090;28;20151;-82
2022/12/26 12:08:59;;;;;;;1.75;0.82;;;7.70;99.90;;;;;;5049475;28;20049;-86
2022/12/26 12:11:35;;;;;;;2.78;1.00;;;7.80;99.90;;;;;;5072742;28;20060;-84
2022/12/26 12:14:10;;;;;;;1.83;0.63;;;7.90;99.90;;;;;;5036615;28;20057;-83
2022/12/26 12:16:52;;;;;;;2.38;1.00;;;8.00;99.90;;;;;;5053799;28;20407;-85
2022/12/26 12:19:58;;;;;;;1.60;0.80;;;8.10;99.90;;;;;;5025676;28;20110;-85
2022/12/26 12:22:32;;;;;;;1.58;1.00;;;8.20;99.90;;;;;;5051043;28;20080;-84
2022/12/26 12:25:17;;;;;;;1.80;0.68;;;8.30;99.90;;;;;;5038863;28;20117;-84
2022/12/26 12:28:12;;;;;;;2.25;0.82;;;8.40;99.90;;;;;;5050597;28;20078;-85
2022/12/26 12:30:45;;;;;;;3.42;0.93;;;8.50;99.90;;;;;;5040472;28;20056;-82
2022/12/26 12:33:24;;;;;;;2.40;1.10;;;8.60;99.90;;;;;;5056768;28;20645;-83
2022/12/26 12:36:07;;;;;;;1.08;0.60;;;8.70;99.90;;;;;;5053549;28;20556;-84
2022/12/26 12:39:01;;;;;;;2.92;1.00;;;8.90;99.90;;;;;;5057991;28;20065;-91
2022/12/26 12:41:30;;;;;;;2.63;1.42;;;9.00;99.90;;;;;;5062476;28;20155;-87
2022/12/26 12:44:07;;;;;;;2.78;1.00;;;8.90;99.90;;;;;;5052045;28;20423;-84
2022/12/26 12:46:49;;;;;;;2.47;1.15;;;9.00;99.90;;;;;;5064710;28;20032;-84
2022/12/26 12:49:58;;;;;;;1.88;1.00;;;9.00;99.90;;;;;;5054461;28;20821;-83
2022/12/26 12:52:31;;;;;;;2.05;1.10;;;9.20;99.90;;;;;;5019482;28;20137;-90
2022/12/26 12:55:30;;;;;;;2.78;1.00;;;9.30;99.90;;;;;;5008632;28;20051;-93
2022/12/26 12:58:33;;;;;;;1.67;1.10;;;9.30;99.90;;;;;;5031125;28;20156;-83
2022/12/26 13:01:17;;;;;;;3.42;1.30;;;9.40;99.90;;;;;;5058874;28;20149;-90
2022/12/26 13:04:11;;;;;;;2.40;1.00;;;9.50;99.90;;;;;;5044605;28;20053;-88
2022/12/26 13:06:50;;;;;;;1.92;1.05;;;9.70;99.90;;;;;;5049343;28;20475;-92
2022/12/26 13:09:36;;;;;;;1.92;0.85;;;9.70;99.90;;;;;;5043744;28;20045;-92
2022/12/26 13:12:05;;;;;;;1.30;0.70;;;9.90;99.90;;;;;;5044994;28;20044;-91
2022/12/26 13:14:36;;;;;;;1.13;0.52;;;10.00;99.90;;;;;;5061856;28;20044;-86
2022/12/26 13:17:04;;;;;;;1.77;0.90;;;10.10;99.90;;;;;;5045297;28;20056;-80
2022/12/26 13:19:51;;;;;;;1.70;0.95;;;10.10;99.90;;;;;;5054395;28;20084;-79
2022/12/26 13:25:22;;;;;;;2.88;1.02;;;10.00;99.90;;;;;;5046393;28;21296;-78
2022/12/26 13:27:48;;;;;;;1.92;0.77;;;10.10;99.90;;;;;;5043780;28;20053;-79
2022/12/26 13:30:15;;;;;;;1.50;1.00;;;10.00;99.90;;;;;;5017426;28;20164;-79
2022/12/26 13:32:43;;;;;;;1.38;0.88;;;10.00;99.90;;;;;;5037894;28;20068;-89
2022/12/26 13:35:51;;;;;;;1.92;1.30;;;10.00;99.90;;;;;;5050912;28;20060;-90
2022/12/26 13:38:19;;;;;;;3.55;1.17;;;10.00;99.90;;;;;;5066800;28;20051;-93
2022/12/26 13:43:53;;;;;;;1.52;0.95;;;10.00;99.90;;;;;;5046659;28;20049;-88
2022/12/26 13:44:03;;;;;;;1.42;0.88;;;9.90;99.90;;;;;;5059058;28;20103;-93
2022/12/26 13:46:50;;;;;;;1.23;0.80;;;9.90;99.90;;;;;;5061614;28;20144;-90
2022/12/26 13:49:37;;;;;;;2.10;1.00;;;10.00;99.90;;;;;;5059227;28;20587;-90
2022/12/26 13:52:10;;;;;;;2.25;0.90;;;9.90;99.90;;;;;;5042576;28;20056;-83
2022/12/26 13:55:03;;;;;;;1.98;0.90;;;9.80;99.90;;;;;;5058436;28;20044;-86
2022/12/26 13:57:41;;;;;;;1.95;1.00;;;9.80;99.90;;;;;;5064237;28;20325;-89
2022/12/26 14:00:14;;;;;;;1.85;0.80;;;9.70;99.90;;;;;;5064365;28;20163;-85
2022/12/26 14:02:47;;;;;;;0.90;0.50;;;9.80;99.90;;;;;;5062169;28;20051;-87
2022/12/26 14:06:21;;;;;;;1.13;0.60;;;9.90;99.90;;;;;;5052566;28;20731;-87
2022/12/26 14:09:06;;;;;;;1.10;0.60;;;9.90;99.90;;;;;;5014822;28;20172;-86
2022/12/26 14:11:51;;;;;;;2.95;0.93;;;9.70;99.90;;;;;;5016468;28;20183;-88
2022/12/26 14:14:29;;;;;;;1.70;0.73;;;9.50;99.90;;;;;;5029921;28;20118;-87
2022/12/26 14:17:18;;;;;;;2.30;0.85;;;9.30;99.90;;;;;;5039350;28;20044;-81
2022/12/26 14:20:20;;;;;;;5.22;0.98;;;9.20;99.90;;;;;;5044493;28;20063;-89
2022/12/26 14:23:11;;;;;;;1.45;0.88;;;9.10;99.90;;;;;;5062618;28;20040;-89
2022/12/26 14:26:06;;;;;;;1.80;1.02;;;9.00;99.90;;;;;;5057993;28;20049;-95
2022/12/26 14:28:46;;;;;;;3.25;1.20;;;9.00;99.90;;;;;;5057708;28;20048;-87
2022/12/26 14:31:38;;;;;;;2.28;0.90;;;8.90;99.90;;;;;;5057940;28;20397;-86
2022/12/26 14:34:42;;;;;;;3.88;1.17;;;8.70;99.90;;;;;;5055434;28;20044;-84
2022/12/26 14:37:20;;;;;;;1.52;0.80;;;8.60;99.90;;;;;;5054569;28;20510;-83
2022/12/26 14:40:23;;;;;;;2.38;1.10;;;8.50;99.90;;;;;;5039558;28;20721;-87
2022/12/26 14:43:11;;;;;;;1.17;0.70;;;8.50;99.90;;;;;;5056859;28;20330;-84
2022/12/26 14:45:47;;;;;;;2.80;0.70;;;8.40;99.90;;;;;;5049423;28;20064;-84
2022/12/26 14:48:14;;;;;;;2.88;1.15;;;8.30;99.90;;;;;;5022260;28;20110;-82
2022/12/26 14:50:43;;;;;;;2.03;1.00;;;8.20;99.90;;;;;;5054566;28;20052;-85
2022/12/26 14:53:16;;;;;;;4.00;0.90;;;8.20;99.90;;;;;;5024037;28;20055;-87
2022/12/26 14:55:45;;;;;;;4.15;1.10;;;8.10;99.90;;;;;;5055659;28;20199;-84
2022/12/26 14:58:35;;;;;;;3.65;1.20;;;8.10;99.90;;;;;;5055554;28;20053;-90
2022/12/26 15:01:30;;;;;;;1.75;0.95;;;8.00;99.90;;;;;;5064622;28;20060;-85
2022/12/26 15:04:15;;;;;;;1.10;0.73;;;7.90;99.90;;;;;;5077786;28;20053;-91
2022/12/26 15:07:00;;;;;;;1.63;0.80;;;7.90;99.90;;;;;;5057224;28;20128;-85
2022/12/26 15:09:45;;;;;;;1.85;0.93;;;7.80;99.90;;;;;;5063757;28;20630;-93
2022/12/26 15:12:46;;;;;;;1.45;0.70;;;7.80;99.90;;;;;;5057535;28;20053;-88
2022/12/26 15:15:45;;;;;;;2.35;1.00;;;7.70;99.90;;;;;;5065292;28;20079;-88
2022/12/26 15:18:37;;;;;;;1.92;0.63;;;7.70;99.90;;;;;;5041451;28;20356;-88
2022/12/26 15:21:30;;;;;;;1.90;1.20;;;7.60;99.90;;;;;;5055078;28;20052;-78
2022/12/26 15:24:11;;;;;;;1.63;0.90;;;7.60;99.90;;;;;;5048169;28;20045;-76
2022/12/26 15:27:08;;;;;;;3.03;0.93;;;7.60;99.90;;;;;;5050856;28;20055;-76
2022/12/26 15:29:41;;;;;;;2.60;1.35;;;7.50;99.90;;;;;;5055149;28;20052;-76
2022/12/26 15:32:18;;;;;;;1.02;0.77;;;7.40;99.90;;;;;;5046098;28;20057;-77
2022/12/26 15:34:45;;;;;;;2.53;0.70;;;7.40;99.90;;;;;;5049321;28;20048;-77
2022/12/26 15:37:31;;;;;;;1.88;0.75;;;7.40;99.90;;;;;;5046485;28;20566;-77
2022/12/26 15:40:04;;;;;;;2.17;0.65;;;7.30;99.90;;;;;;5050246;28;20480;-76
2022/12/26 15:42:31;;;;;;;;;;;7.30;99.90;;;;;;5037066;28;20048;-76
2022/12/26 15:45:35;;;;;;;0.85;0.63;;;7.20;99.90;;;;;;5050700;28;19990;-76